WetterOnline ( https://www.wetteronline.de )

Wetter aktuell Witzwort

Aktuelles Wetter: St. Peter-Ording (11m)

6-stündlich | Neueste Meldungen
Ortszeit Temperatur Wetter
Mi, 30.09. 2:00 13.4° C leicht bewölkt
Di, 29.09. 20:00 13.8° C bewölkt
Di, 29.09. 14:00 14.8° C bedeckt
Di, 29.09. 8:00 12.3° C bewölkt
Di, 29.09. 2:00 12.6° C Sprühregen
Mo, 28.09. 20:00 12.4° C Sprühregen
Mo, 28.09. 14:00 13.6° C bedeckt
Mo, 28.09. 8:00 14.4° C bedeckt
Ortszeit Temperatur Wetter
Mi, 30.09. 5:00 13.3° C bedeckt
Mi, 30.09. 4:50 13.3° C bedeckt
Mi, 30.09. 4:40 13.5° C bedeckt
Mi, 30.09. 4:30 13.7° C bedeckt
Mi, 30.09. 4:20 13.7° C bedeckt
Mi, 30.09. 4:10 13.5° C bedeckt
Mi, 30.09. 4:00 13.6° C bedeckt
Mi, 30.09. 3:30 12.7° C bewölkt
Mi, 30.09. 3:00 14.1° C bewölkt
Mi, 30.09. 2:30 13.8° C bewölkt
Mi, 30.09. 2:00 13.4° C leicht bewölkt
Ortszeit Relative Feuchte Sichtweite
Mi, 30.09. 2:00 87% 40 km
Di, 29.09. 20:00 88% 13 km
Di, 29.09. 14:00 74% 30 km
Di, 29.09. 8:00 90% 11 km
Di, 29.09. 2:00 97% 2.1 km
Mo, 28.09. 20:00 98% 2.0 km
Mo, 28.09. 14:00 91% 5.0 km
Mo, 28.09. 8:00 99% 3.8 km
Ortszeit Relative Feuchte Sichtweite
Mi, 30.09. 5:00 92% 29 km
Mi, 30.09. 4:50 92% -
Mi, 30.09. 4:40 92% -
Mi, 30.09. 4:30 89% 40 km
Mi, 30.09. 4:20 89% -
Mi, 30.09. 4:10 91% -
Mi, 30.09. 4:00 89% 40 km
Mi, 30.09. 3:30 92% 45 km
Mi, 30.09. 3:00 84% 40 km
Mi, 30.09. 2:30 87% 40 km
Mi, 30.09. 2:00 87% 40 km
Ortszeit Niederschlagsmenge Niederschlagsart
Mi, 30.09. 2:00 0.6 l/m2 in 6 Std. Regen
Di, 29.09. 20:00 0.1 l/m2 in 12 Std. Regen
Di, 29.09. 14:00 0.1 l/m2 in 6 Std. Regen
Di, 29.09. 8:00 1 l/m2 in 12 Std. Regen
Di, 29.09. 2:00 1 l/m2 in 6 Std. Regen
Mo, 28.09. 20:00 0.2 l/m2 in 12 Std. Regen
Mo, 28.09. 14:00 0.1 l/m2 in 6 Std. Sprühregen
Mo, 28.09. 8:00 0.1 l/m2 in 12 Std. -
Ortszeit Niederschlagsmenge Niederschlagsart
Mi, 30.09. 5:00 0.0 l/m2 in 1 Std. -
Mi, 30.09. 4:50 keine Meldung -
Mi, 30.09. 4:40 keine Meldung -
Mi, 30.09. 4:30 0.0 l/m2 in 1 Std. -
Mi, 30.09. 4:20 keine Meldung -
Mi, 30.09. 4:10 keine Meldung -
Mi, 30.09. 4:00 0.0 l/m2 in 1 Std. -
Mi, 30.09. 3:30 0.0 l/m2 in 1 Std. -
Mi, 30.09. 3:00 0.0 l/m2 in 1 Std. -
Mi, 30.09. 2:30 0.0 l/m2 in 1 Std. -
Mi, 30.09. 2:00 0.0 l/m2 in 1 Std. Regen
Ortszeit Stärke Spitze Richtung
km/h Bft. km/h Grad Sektor
Mi, 30.09. 2:00 14 3 29 260° W
Di, 29.09. 20:00 19 3 31 180° S
Di, 29.09. 14:00 19 3 30 160° S
Di, 29.09. 8:00 14 3 29 170° S
Di, 29.09. 2:00 15 3 26 170° S
Mo, 28.09. 20:00 7 2 22 150° SO
Mo, 28.09. 14:00 11 2 25 160° S
Mo, 28.09. 8:00 0 0 22 - -
Ortszeit Stärke Spitze Richtung
km/h Bft. km/h Grad Sektor
Mi, 30.09. 5:00 7 2 11 120° SO
Mi, 30.09. 4:50 7 2 - 120° SO
Mi, 30.09. 4:40 7 2 - 170° S
Mi, 30.09. 4:30 7 2 11 200° S
Mi, 30.09. 4:20 7 2 - 200° S
Mi, 30.09. 4:10 6 1 - 200° S
Mi, 30.09. 4:00 7 2 14 240° SW
Mi, 30.09. 3:30 7 2 15 250° W
Mi, 30.09. 3:00 11 2 14 250° W
Mi, 30.09. 2:30 11 2 14 270° W
Mi, 30.09. 2:00 14 3 22 260° W
Ortszeit Untergrenze Bedeckung Gattung
total tief tief mittel hoch
Mi, 30.09. 2:00 600 m 3/8 3/8 - - -
Di, 29.09. 20:00 270 m 7/8 7/8 - - -
Di, 29.09. 14:00 1800 m 8/8 8/8 - - -
Di, 29.09. 8:00 1080 m 7/8 7/8 - - -
Di, 29.09. 2:00 150 m 8/8 8/8 - - -
Mo, 28.09. 20:00 90 m 8/8 8/8 - - -
Mo, 28.09. 14:00 180 m 8/8 8/8 - - -
Mo, 28.09. 8:00 240 m 8/8 8/8 - - -
Ortszeit Bedeckungsgrad in Achtel und Wolkenuntergrenze
Mi, 30.09. 5:00 8(600m)
Mi, 30.09. 4:50 8(600m)
Mi, 30.09. 4:40 8(570m)
Mi, 30.09. 4:30 8(570m)
Mi, 30.09. 4:20 8(570m)
Mi, 30.09. 4:10 8(570m)
Mi, 30.09. 4:00 8(600m)
Mi, 30.09. 3:30 7(600m)
Mi, 30.09. 3:00 7(600m)
Mi, 30.09. 2:30 7(600m)
Mi, 30.09. 2:00 3(600m)
Ortszeit Luftdruck NN (hPa) Tendenz (hPa in 3 Std.)
Mi, 30.09. 2:00 1016 - 0,1
Di, 29.09. 20:00 1015 + 0,6
Di, 29.09. 14:00 1015 + 0,1
Di, 29.09. 8:00 1014 + 0,9
Di, 29.09. 2:00 1012 + 0,2
Mo, 28.09. 20:00 1011 + 1,4
Mo, 28.09. 14:00 1009 + 0,9
Mo, 28.09. 8:00 1007 + 0,5
Ortszeit Luftdruck NN (hPa) Tendenz (hPa in 3 Std.)
Mi, 30.09. 5:00 1015 - 0,5
Mi, 30.09. 4:50 1015 keine Meldung
Mi, 30.09. 4:40 1015 keine Meldung
Mi, 30.09. 4:30 1015 - 0,3
Mi, 30.09. 4:20 1015 keine Meldung
Mi, 30.09. 4:10 1015 keine Meldung
Mi, 30.09. 4:00 1015 - 0,2
Mi, 30.09. 3:30 1016 - 0,1
Mi, 30.09. 3:00 1016 - 0,1
Mi, 30.09. 2:30 1016 - 0,2
Mi, 30.09. 2:00 1016 - 0,1
Ortszeit Schneehöhe (cm)
Mi, 30.09. 2:00 -
Di, 29.09. 20:00 -
Di, 29.09. 14:00 -
Di, 29.09. 8:00 -
Di, 29.09. 2:00 -
Mo, 28.09. 20:00 -
Mo, 28.09. 14:00 -
Mo, 28.09. 8:00 -
Ortszeit Schneehöhe (cm)
Mi, 30.09. 5:00 -
Mi, 30.09. 4:50 -
Mi, 30.09. 4:40 -
Mi, 30.09. 4:30 -
Mi, 30.09. 4:20 -
Mi, 30.09. 4:10 -
Mi, 30.09. 4:00 -
Mi, 30.09. 3:30 -
Mi, 30.09. 3:00 -
Mi, 30.09. 2:30 -
Mi, 30.09. 2:00 -
Link zu dieser Seite / Seite empfehlen

Das Wetter in ...